sensor_id;sensor_type;location;lat;lon;timestamp;temperature;humidity
17307;DHT22;8771;48.048;7.682;2023-04-01T00:04:41;10.80;66.10
17307;DHT22;8771;48.048;7.682;2023-04-01T00:09:43;10.70;66.10
17307;DHT22;8771;48.048;7.682;2023-04-01T00:14:47;10.70;66.20
17307;DHT22;8771;48.048;7.682;2023-04-01T00:19:48;10.70;66.30
17307;DHT22;8771;48.048;7.682;2023-04-01T00:24:50;10.70;66.30
17307;DHT22;8771;48.048;7.682;2023-04-01T00:29:54;10.70;66.30
17307;DHT22;8771;48.048;7.682;2023-04-01T00:34:56;10.70;66.30
17307;DHT22;8771;48.048;7.682;2023-04-01T00:39:59;10.70;66.40
17307;DHT22;8771;48.048;7.682;2023-04-01T00:45:25;10.60;66.40
17307;DHT22;8771;48.048;7.682;2023-04-01T00:50:29;10.60;66.40
17307;DHT22;8771;48.048;7.682;2023-04-01T00:55:35;10.60;66.40
17307;DHT22;8771;48.048;7.682;2023-04-01T01:00:39;10.60;66.60
17307;DHT22;8771;48.048;7.682;2023-04-01T01:11:29;10.50;66.50
17307;DHT22;8771;48.048;7.682;2023-04-01T01:16:43;10.50;66.50
17307;DHT22;8771;48.048;7.682;2023-04-01T01:21:57;10.50;66.60
17307;DHT22;8771;48.048;7.682;2023-04-01T01:27:08;10.40;66.60
17307;DHT22;8771;48.048;7.682;2023-04-01T01:32:26;10.50;66.70
17307;DHT22;8771;48.048;7.682;2023-04-01T01:37:34;10.40;66.60
17307;DHT22;8771;48.048;7.682;2023-04-01T01:42:38;10.40;66.70
17307;DHT22;8771;48.048;7.682;2023-04-01T01:47:41;10.40;66.70
17307;DHT22;8771;48.048;7.682;2023-04-01T01:52:45;10.40;66.70
17307;DHT22;8771;48.048;7.682;2023-04-01T01:57:47;10.40;66.80
17307;DHT22;8771;48.048;7.682;2023-04-01T02:02:50;10.30;66.90
17307;DHT22;8771;48.048;7.682;2023-04-01T02:07:57;10.30;66.90
17307;DHT22;8771;48.048;7.682;2023-04-01T02:13:07;10.30;66.90
17307;DHT22;8771;48.048;7.682;2023-04-01T02:18:12;10.30;66.90
17307;DHT22;8771;48.048;7.682;2023-04-01T02:23:16;10.30;66.90
17307;DHT22;8771;48.048;7.682;2023-04-01T02:28:19;10.30;66.90
17307;DHT22;8771;48.048;7.682;2023-04-01T02:33:21;10.30;66.90
17307;DHT22;8771;48.048;7.682;2023-04-01T02:38:25;10.30;66.80
17307;DHT22;8771;48.048;7.682;2023-04-01T02:43:27;10.30;66.90
17307;DHT22;8771;48.048;7.682;2023-04-01T02:48:29;10.30;66.90
17307;DHT22;8771;48.048;7.682;2023-04-01T02:53:33;10.30;66.90
17307;DHT22;8771;48.048;7.682;2023-04-01T02:58:35;10.30;66.90
17307;DHT22;8771;48.048;7.682;2023-04-01T03:03:37;10.20;66.90
17307;DHT22;8771;48.048;7.682;2023-04-01T03:08:40;10.20;67.00
17307;DHT22;8771;48.048;7.682;2023-04-01T03:13:42;10.20;67.20
17307;DHT22;8771;48.048;7.682;2023-04-01T03:18:44;10.10;68.80
17307;DHT22;8771;48.048;7.682;2023-04-01T03:23:47;10.10;81.10
17307;DHT22;8771;48.048;7.682;2023-04-01T03:28:49;10.10;80.40
17307;DHT22;8771;48.048;7.682;2023-04-01T03:33:51;10.10;80.20
17307;DHT22;8771;48.048;7.682;2023-04-01T03:38:55;10.20;79.60
17307;DHT22;8771;48.048;7.682;2023-04-01T03:43:57;10.20;79.00
17307;DHT22;8771;48.048;7.682;2023-04-01T03:48:59;10.20;78.90
17307;DHT22;8771;48.048;7.682;2023-04-01T03:54:03;10.20;79.70
17307;DHT22;8771;48.048;7.682;2023-04-01T03:59:07;10.10;79.30
17307;DHT22;8771;48.048;7.682;2023-04-01T04:04:11;10.10;78.80
17307;DHT22;8771;48.048;7.682;2023-04-01T04:09:15;10.10;67.50
17307;DHT22;8771;48.048;7.682;2023-04-01T04:14:17;10.10;67.60
17307;DHT22;8771;48.048;7.682;2023-04-01T04:19:20;10.00;67.50
17307;DHT22;8771;48.048;7.682;2023-04-01T04:24:24;10.00;67.50
17307;DHT22;8771;48.048;7.682;2023-04-01T04:29:27;10.00;67.50
17307;DHT22;8771;48.048;7.682;2023-04-01T04:34:29;10.00;67.60
17307;DHT22;8771;48.048;7.682;2023-04-01T04:39:32;10.00;67.50
17307;DHT22;8771;48.048;7.682;2023-04-01T04:44:34;10.00;67.50
17307;DHT22;8771;48.048;7.682;2023-04-01T04:49:38;10.00;67.50
17307;DHT22;8771;48.048;7.682;2023-04-01T04:54:41;10.00;68.30
17307;DHT22;8771;48.048;7.682;2023-04-01T04:59:43;10.00;67.50
17307;DHT22;8771;48.048;7.682;2023-04-01T05:04:46;10.00;67.60
17307;DHT22;8771;48.048;7.682;2023-04-01T05:09:49;10.00;68.40
17307;DHT22;8771;48.048;7.682;2023-04-01T05:14:51;10.00;67.50
17307;DHT22;8771;48.048;7.682;2023-04-01T05:19:54;10.00;67.60
17307;DHT22;8771;48.048;7.682;2023-04-01T05:24:57;10.00;67.60
17307;DHT22;8771;48.048;7.682;2023-04-01T05:29:59;10.00;67.60
17307;DHT22;8771;48.048;7.682;2023-04-01T05:35:01;10.00;67.60
17307;DHT22;8771;48.048;7.682;2023-04-01T05:40:06;10.00;67.70
17307;DHT22;8771;48.048;7.682;2023-04-01T05:45:09;10.00;67.70
17307;DHT22;8771;48.048;7.682;2023-04-01T05:50:12;10.00;67.70
17307;DHT22;8771;48.048;7.682;2023-04-01T05:55:16;10.00;67.60
17307;DHT22;8771;48.048;7.682;2023-04-01T06:00:18;10.00;67.60
17307;DHT22;8771;48.048;7.682;2023-04-01T06:05:22;10.10;67.70
17307;DHT22;8771;48.048;7.682;2023-04-01T06:10:36;10.10;67.70
17307;DHT22;8771;48.048;7.682;2023-04-01T06:15:44;10.20;67.70
17307;DHT22;8771;48.048;7.682;2023-04-01T06:20:55;10.20;67.80
17307;DHT22;8771;48.048;7.682;2023-04-01T06:26:14;10.20;67.70
17307;DHT22;8771;48.048;7.682;2023-04-01T06:31:33;10.20;67.60
17307;DHT22;8771;48.048;7.682;2023-04-01T06:36:52;10.30;67.70
17307;DHT22;8771;48.048;7.682;2023-04-01T06:42:10;10.30;67.60
17307;DHT22;8771;48.048;7.682;2023-04-01T06:47:26;10.30;67.50
17307;DHT22;8771;48.048;7.682;2023-04-01T06:52:35;10.40;67.50
17307;DHT22;8771;48.048;7.682;2023-04-01T06:57:43;10.50;67.50
17307;DHT22;8771;48.048;7.682;2023-04-01T07:02:52;10.50;67.60
17307;DHT22;8771;48.048;7.682;2023-04-01T07:08:01;10.50;67.50
17307;DHT22;8771;48.048;7.682;2023-04-01T07:13:11;10.60;67.70
17307;DHT22;8771;48.048;7.682;2023-04-01T07:18:17;10.70;80.60
17307;DHT22;8771;48.048;7.682;2023-04-01T07:23:23;10.70;81.80
17307;DHT22;8771;48.048;7.682;2023-04-01T07:28:30;10.80;67.40
17307;DHT22;8771;48.048;7.682;2023-04-01T07:33:38;10.90;67.30
17307;DHT22;8771;48.048;7.682;2023-04-01T07:38:49;11.00;94.30
17307;DHT22;8771;48.048;7.682;2023-04-01T07:44:07;11.10;91.70
17307;DHT22;8771;48.048;7.682;2023-04-01T07:49:16;11.20;88.10
17307;DHT22;8771;48.048;7.682;2023-04-01T07:54:23;11.30;80.80
17307;DHT22;8771;48.048;7.682;2023-04-01T07:59:33;11.40;67.20
17307;DHT22;8771;48.048;7.682;2023-04-01T08:04:51;11.50;67.20
17307;DHT22;8771;48.048;7.682;2023-04-01T08:10:03;11.50;67.10
17307;DHT22;8771;48.048;7.682;2023-04-01T08:15:17;11.50;67.00
17307;DHT22;8771;48.048;7.682;2023-04-01T08:20:30;11.50;67.10
17307;DHT22;8771;48.048;7.682;2023-04-01T08:25:35;11.60;67.20
17307;DHT22;8771;48.048;7.682;2023-04-01T08:30:43;11.70;67.20
17307;DHT22;8771;48.048;7.682;2023-04-01T08:35:49;11.70;67.10
17307;DHT22;8771;48.048;7.682;2023-04-01T08:40:59;11.80;67.10
17307;DHT22;8771;48.048;7.682;2023-04-01T08:46:19;11.90;67.10
17307;DHT22;8771;48.048;7.682;2023-04-01T08:56:58;12.00;67.00
17307;DHT22;8771;48.048;7.682;2023-04-01T09:02:26;12.10;67.00
17307;DHT22;8771;48.048;7.682;2023-04-01T09:07:40;12.20;67.20
17307;DHT22;8771;48.048;7.682;2023-04-01T09:13:04;12.10;67.00
17307;DHT22;8771;48.048;7.682;2023-04-01T09:18:25;12.20;67.00
17307;DHT22;8771;48.048;7.682;2023-04-01T09:23:45;12.20;67.00
17307;DHT22;8771;48.048;7.682;2023-04-01T09:28:54;12.30;67.00
17307;DHT22;8771;48.048;7.682;2023-04-01T09:34:12;12.30;67.00
17307;DHT22;8771;48.048;7.682;2023-04-01T09:39:32;12.40;67.00
17307;DHT22;8771;48.048;7.682;2023-04-01T09:44:37;12.60;72.70
17307;DHT22;8771;48.048;7.682;2023-04-01T09:49:59;12.60;69.00
17307;DHT22;8771;48.048;7.682;2023-04-01T09:55:18;12.70;67.00
17307;DHT22;8771;48.048;7.682;2023-04-01T10:00:41;12.80;67.00
17307;DHT22;8771;48.048;7.682;2023-04-01T10:12:02;13.00;66.90
17307;DHT22;8771;48.048;7.682;2023-04-01T10:17:30;13.10;66.80
17307;DHT22;8771;48.048;7.682;2023-04-01T10:23:05;13.20;66.80
17307;DHT22;8771;48.048;7.682;2023-04-01T10:28:30;13.30;66.70
17307;DHT22;8771;48.048;7.682;2023-04-01T10:39:54;13.40;66.70
17307;DHT22;8771;48.048;7.682;2023-04-01T11:43:32;13.80;66.50
17307;DHT22;8771;48.048;7.682;2023-04-01T11:49:02;13.80;66.40
17307;DHT22;8771;48.048;7.682;2023-04-01T11:54:16;13.90;66.40
17307;DHT22;8771;48.048;7.682;2023-04-01T11:59:52;13.90;66.40
17307;DHT22;8771;48.048;7.682;2023-04-01T12:05:08;14.00;66.40
17307;DHT22;8771;48.048;7.682;2023-04-01T12:10:39;14.10;66.40
17307;DHT22;8771;48.048;7.682;2023-04-01T12:27:06;14.20;66.30
17307;DHT22;8771;48.048;7.682;2023-04-01T12:32:23;14.30;66.30
17307;DHT22;8771;48.048;7.682;2023-04-01T12:37:34;14.30;66.20
17307;DHT22;8771;48.048;7.682;2023-04-01T12:42:47;14.40;66.30
17307;DHT22;8771;48.048;7.682;2023-04-01T12:48:22;14.40;66.30
17307;DHT22;8771;48.048;7.682;2023-04-01T12:53:54;14.30;66.30
17307;DHT22;8771;48.048;7.682;2023-04-01T12:59:24;14.30;66.30
17307;DHT22;8771;48.048;7.682;2023-04-01T13:05:01;14.30;66.40
17307;DHT22;8771;48.048;7.682;2023-04-01T13:10:20;14.30;66.40
17307;DHT22;8771;48.048;7.682;2023-04-01T13:15:32;14.30;66.40
17307;DHT22;8771;48.048;7.682;2023-04-01T13:20:45;14.30;66.40
17307;DHT22;8771;48.048;7.682;2023-04-01T13:25:54;14.40;66.30
17307;DHT22;8771;48.048;7.682;2023-04-01T13:31:05;14.50;66.20
17307;DHT22;8771;48.048;7.682;2023-04-01T13:36:19;14.50;66.10
17307;DHT22;8771;48.048;7.682;2023-04-01T13:41:35;14.50;66.10
17307;DHT22;8771;48.048;7.682;2023-04-01T13:46:53;14.50;66.10
17307;DHT22;8771;48.048;7.682;2023-04-01T13:52:10;14.60;66.20
17307;DHT22;8771;48.048;7.682;2023-04-01T13:57:28;14.70;66.10
17307;DHT22;8771;48.048;7.682;2023-04-01T14:02:50;14.70;66.00
17307;DHT22;8771;48.048;7.682;2023-04-01T14:08:04;14.80;65.90
17307;DHT22;8771;48.048;7.682;2023-04-01T14:13:17;15.00;65.80
17307;DHT22;8771;48.048;7.682;2023-04-01T14:18:58;15.20;65.60
17307;DHT22;8771;48.048;7.682;2023-04-01T14:24:52;15.30;65.50
17307;DHT22;8771;48.048;7.682;2023-04-01T14:35:38;15.50;65.40
17307;DHT22;8771;48.048;7.682;2023-04-01T14:40:55;15.50;65.30
17307;DHT22;8771;48.048;7.682;2023-04-01T14:46:08;15.70;65.20
17307;DHT22;8771;48.048;7.682;2023-04-01T14:51:16;15.90;65.10
17307;DHT22;8771;48.048;7.682;2023-04-01T15:01:57;16.00;64.90
17307;DHT22;8771;48.048;7.682;2023-04-01T15:07:11;16.30;64.80
17307;DHT22;8771;48.048;7.682;2023-04-01T15:12:24;16.40;64.70
17307;DHT22;8771;48.048;7.682;2023-04-01T15:17:39;16.40;64.60
17307;DHT22;8771;48.048;7.682;2023-04-01T15:22:59;16.40;64.70
17307;DHT22;8771;48.048;7.682;2023-04-01T15:28:07;16.40;64.90
17307;DHT22;8771;48.048;7.682;2023-04-01T15:33:25;16.30;65.00
17307;DHT22;8771;48.048;7.682;2023-04-01T15:38:36;16.20;65.20
17307;DHT22;8771;48.048;7.682;2023-04-01T15:43:41;16.00;65.50
17307;DHT22;8771;48.048;7.682;2023-04-01T15:49:01;15.70;65.80
17307;DHT22;8771;48.048;7.682;2023-04-01T17:43:08;14.50;99.90
17307;DHT22;8771;48.048;7.682;2023-04-01T17:48:32;14.50;66.50
17307;DHT22;8771;48.048;7.682;2023-04-01T17:53:45;14.30;66.90
17307;DHT22;8771;48.048;7.682;2023-04-01T17:58:58;14.10;67.20
17307;DHT22;8771;48.048;7.682;2023-04-01T18:04:31;13.90;67.50
17307;DHT22;8771;48.048;7.682;2023-04-01T18:09:49;13.60;67.60
17307;DHT22;8771;48.048;7.682;2023-04-01T18:15:17;13.40;67.90
17307;DHT22;8771;48.048;7.682;2023-04-01T18:20:31;13.20;68.00
17307;DHT22;8771;48.048;7.682;2023-04-01T18:30:42;12.90;68.20
17307;DHT22;8771;48.048;7.682;2023-04-01T18:35:48;12.70;68.30
17307;DHT22;8771;48.048;7.682;2023-04-01T18:41:07;12.60;68.30
17307;DHT22;8771;48.048;7.682;2023-04-01T18:46:19;12.50;68.30
17307;DHT22;8771;48.048;7.682;2023-04-01T18:51:26;12.40;68.40
17307;DHT22;8771;48.048;7.682;2023-04-01T18:56:37;12.30;68.50
17307;DHT22;8771;48.048;7.682;2023-04-01T19:01:47;12.20;68.50
17307;DHT22;8771;48.048;7.682;2023-04-01T19:06:55;12.10;68.40
17307;DHT22;8771;48.048;7.682;2023-04-01T19:12:23;12.00;68.40
17307;DHT22;8771;48.048;7.682;2023-04-01T19:17:44;11.90;68.50
17307;DHT22;8771;48.048;7.682;2023-04-01T19:28:31;11.80;68.60
17307;DHT22;8771;48.048;7.682;2023-04-01T19:33:52;11.70;68.60
17307;DHT22;8771;48.048;7.682;2023-04-01T19:39:06;11.60;68.60
17307;DHT22;8771;48.048;7.682;2023-04-01T19:44:28;11.50;68.60
17307;DHT22;8771;48.048;7.682;2023-04-01T19:49:45;11.50;68.70
17307;DHT22;8771;48.048;7.682;2023-04-01T19:54:52;11.40;68.60
17307;DHT22;8771;48.048;7.682;2023-04-01T20:00:02;11.30;68.70
17307;DHT22;8771;48.048;7.682;2023-04-01T20:05:41;11.20;68.80
17307;DHT22;8771;48.048;7.682;2023-04-01T20:10:55;11.20;68.90
17307;DHT22;8771;48.048;7.682;2023-04-01T20:16:01;11.10;68.90
17307;DHT22;8771;48.048;7.682;2023-04-01T20:21:18;11.00;69.00
17307;DHT22;8771;48.048;7.682;2023-04-01T20:26:24;11.00;69.00
17307;DHT22;8771;48.048;7.682;2023-04-01T20:31:34;11.00;68.80
17307;DHT22;8771;48.048;7.682;2023-04-01T20:36:46;11.00;68.70
17307;DHT22;8771;48.048;7.682;2023-04-01T20:47:39;11.00;68.60
17307;DHT22;8771;48.048;7.682;2023-04-01T20:52:52;11.00;68.50
17307;DHT22;8771;48.048;7.682;2023-04-01T20:58:11;11.00;68.40
17307;DHT22;8771;48.048;7.682;2023-04-01T21:03:29;11.10;68.40
17307;DHT22;8771;48.048;7.682;2023-04-01T21:09:13;11.00;68.30
17307;DHT22;8771;48.048;7.682;2023-04-01T21:20:23;10.80;68.30
17307;DHT22;8771;48.048;7.682;2023-04-01T21:25:39;10.80;68.30
17307;DHT22;8771;48.048;7.682;2023-04-01T21:31:08;10.90;68.30
17307;DHT22;8771;48.048;7.682;2023-04-01T21:36:29;10.90;68.30
17307;DHT22;8771;48.048;7.682;2023-04-01T21:42:20;10.90;68.30
17307;DHT22;8771;48.048;7.682;2023-04-01T21:48:07;10.90;68.20
17307;DHT22;8771;48.048;7.682;2023-04-01T21:54:01;10.90;68.20
17307;DHT22;8771;48.048;7.682;2023-04-01T21:59:54;10.90;68.30
17307;DHT22;8771;48.048;7.682;2023-04-01T22:05:21;10.90;68.30
17307;DHT22;8771;48.048;7.682;2023-04-01T22:10:50;10.90;68.30
17307;DHT22;8771;48.048;7.682;2023-04-01T22:16:22;10.90;68.30
17307;DHT22;8771;48.048;7.682;2023-04-01T22:21:52;11.00;68.30
17307;DHT22;8771;48.048;7.682;2023-04-01T22:27:26;10.90;68.30
17307;DHT22;8771;48.048;7.682;2023-04-01T22:32:55;10.90;68.30
17307;DHT22;8771;48.048;7.682;2023-04-01T22:38:35;10.90;68.40
17307;DHT22;8771;48.048;7.682;2023-04-01T22:44:00;10.90;68.40
17307;DHT22;8771;48.048;7.682;2023-04-01T22:49:26;10.90;68.50
17307;DHT22;8771;48.048;7.682;2023-04-01T22:54:52;11.00;68.50
17307;DHT22;8771;48.048;7.682;2023-04-01T23:00:20;10.90;68.40
17307;DHT22;8771;48.048;7.682;2023-04-01T23:05:49;11.00;68.40
17307;DHT22;8771;48.048;7.682;2023-04-01T23:11:15;11.00;68.50
17307;DHT22;8771;48.048;7.682;2023-04-01T23:16:42;10.90;68.50
17307;DHT22;8771;48.048;7.682;2023-04-01T23:22:12;10.90;68.50
17307;DHT22;8771;48.048;7.682;2023-04-01T23:27:42;10.90;68.50
17307;DHT22;8771;48.048;7.682;2023-04-01T23:33:13;10.90;68.50
17307;DHT22;8771;48.048;7.682;2023-04-01T23:38:47;10.90;68.50
17307;DHT22;8771;48.048;7.682;2023-04-01T23:44:12;10.90;68.60
17307;DHT22;8771;48.048;7.682;2023-04-01T23:49:38;10.90;68.60
17307;DHT22;8771;48.048;7.682;2023-04-01T23:55:13;10.90;68.50
